Time;durP1;ratioP1;P1;durP2;ratioP2;P2;SDS_P1;SDS_P2;PMS_P1;PMS_P2;Temp;Humidity;BMP_temperature;BMP_pressure;BME280_temperature;BME280_humidity;BME280_pressure;Samples;Min_cycle;Max_cycle;Signal;HPM_P1;HPM_P2
2023/10/18 00:01:24;;;;;;;6.45;3.25;;;2.50;99.90;;;;;;5013522;28;20105;-76
2023/10/18 00:03:53;;;;;;;5.70;3.78;;;2.50;99.90;;;;;;5013034;28;20402;-76
2023/10/18 00:06:22;;;;;;;6.50;4.40;;;2.50;99.90;;;;;;5013112;28;20025;-75
2023/10/18 00:08:48;;;;;;;6.75;4.13;;;2.50;99.90;;;;;;5013617;28;20025;-76
2023/10/18 00:11:15;;;;;;;7.28;4.35;;;2.50;99.90;;;;;;5028180;28;20061;-76
2023/10/18 00:13:41;;;;;;;6.90;4.97;;;2.50;99.90;;;;;;5012794;28;20572;-76
2023/10/18 00:16:08;;;;;;;4.20;3.20;;;2.50;99.90;;;;;;5028160;28;20084;-76
2023/10/18 00:18:35;;;;;;;6.85;4.28;;;2.60;99.90;;;;;;5011505;28;20029;-76
2023/10/18 00:21:06;;;;;;;6.10;4.47;;;2.50;99.90;;;;;;5011669;28;20033;-76
2023/10/18 00:23:32;;;;;;;5.40;4.13;;;2.40;99.90;;;;;;5012678;28;20572;-76
2023/10/18 00:26:08;;;;;;;6.30;3.50;;;2.30;99.90;;;;;;5013111;28;20076;-75
2023/10/18 00:28:38;;;;;;;6.40;3.63;;;2.30;99.90;;;;;;5013252;28;20025;-76
2023/10/18 00:31:18;;;;;;;8.18;4.53;;;2.20;99.90;;;;;;5012772;28;20053;-75
2023/10/18 00:33:44;;;;;;;17.88;8.40;;;2.20;99.90;;;;;;5012694;28;20104;-76
2023/10/18 00:36:11;;;;;;;17.88;8.35;;;2.20;99.90;;;;;;5012882;28;20097;-75
2023/10/18 00:38:39;;;;;;;12.65;6.75;;;2.20;99.90;;;;;;5013074;28;20022;-76
2023/10/18 00:41:14;;;;;;;8.82;5.80;;;2.20;99.90;;;;;;5012471;28;20014;-76
2023/10/18 00:43:44;;;;;;;7.15;4.07;;;2.20;99.90;;;;;;5027611;28;20033;-76
2023/10/18 00:46:10;;;;;;;6.68;4.90;;;2.30;99.90;;;;;;5012772;28;20489;-76
2023/10/18 00:48:37;;;;;;;5.50;4.35;;;2.30;99.90;;;;;;5012636;28;20029;-76
2023/10/18 00:51:03;;;;;;;6.75;4.13;;;2.30;99.90;;;;;;5027989;28;20030;-76
2023/10/18 00:53:33;;;;;;;8.93;4.20;;;2.20;99.90;;;;;;5012172;28;20125;-76
2023/10/18 00:55:59;;;;;;;7.70;4.57;;;2.20;99.90;;;;;;5012898;28;20102;-76
2023/10/18 00:58:27;;;;;;;8.43;4.30;;;2.20;99.90;;;;;;5012738;28;20018;-77
2023/10/18 01:00:55;;;;;;;6.28;4.10;;;2.10;99.90;;;;;;5011278;28;20100;-76
2023/10/18 01:03:30;;;;;;;6.10;4.38;;;2.10;99.90;;;;;;5027629;28;20033;-78
2023/10/18 01:06:20;;;;;;;5.32;3.95;;;2.10;99.90;;;;;;5012759;28;20026;-74
2023/10/18 01:08:49;;;;;;;6.47;3.83;;;2.10;99.90;;;;;;5012755;28;20033;-76
2023/10/18 01:11:22;;;;;;;6.68;3.92;;;2.00;99.90;;;;;;5012698;28;20105;-75
2023/10/18 01:13:48;;;;;;;11.00;3.58;;;2.00;99.90;;;;;;5012094;28;20030;-76
2023/10/18 01:16:15;;;;;;;8.18;4.45;;;1.90;99.90;;;;;;5012366;28;20523;-76
2023/10/18 01:18:47;;;;;;;8.35;4.82;;;1.90;99.90;;;;;;5012459;28;20033;-75
2023/10/18 01:21:19;;;;;;;5.55;3.97;;;2.00;99.90;;;;;;5012382;28;20053;-76
2023/10/18 01:23:49;;;;;;;5.32;4.10;;;2.00;99.90;;;;;;5011893;28;20033;-75
2023/10/18 01:26:15;;;;;;;7.22;3.83;;;2.00;99.90;;;;;;5013086;28;20409;-75
2023/10/18 01:28:41;;;;;;;4.88;4.00;;;2.00;99.90;;;;;;5012649;28;20022;-76
2023/10/18 01:31:07;;;;;;;4.68;3.58;;;1.90;99.90;;;;;;5011154;28;20096;-75
2023/10/18 01:33:43;;;;;;;5.78;3.30;;;1.90;99.90;;;;;;5010375;28;20029;-75
2023/10/18 01:36:14;;;;;;;4.50;3.40;;;2.00;99.90;;;;;;5012119;28;20122;-76
2023/10/18 01:38:48;;;;;;;5.85;3.35;;;2.00;99.90;;;;;;5012198;28;20482;-76
2023/10/18 01:41:30;;;;;;;5.57;3.35;;;2.10;99.90;;;;;;5027431;28;20065;-77
2023/10/18 01:44:06;;;;;;;4.75;3.55;;;2.10;99.90;;;;;;5026799;28;20026;-76
2023/10/18 01:46:36;;;;;;;4.85;3.50;;;1.90;99.90;;;;;;5012196;28;20051;-77
2023/10/18 01:49:03;;;;;;;4.78;3.58;;;1.90;99.90;;;;;;5012060;28;20021;-77
2023/10/18 01:51:29;;;;;;;4.70;3.40;;;1.90;99.90;;;;;;5010860;28;20721;-76
2023/10/18 01:54:02;;;;;;;6.28;3.97;;;1.70;99.90;;;;;;5011913;28;20026;-76
2023/10/18 01:56:28;;;;;;;5.28;3.65;;;1.80;99.90;;;;;;5010695;28;20033;-76
2023/10/18 01:58:54;;;;;;;5.40;4.05;;;1.70;99.90;;;;;;5011994;28;20018;-75
2023/10/18 02:01:21;;;;;;;8.15;3.25;;;1.60;99.90;;;;;;5012112;28;20165;-75
2023/10/18 02:03:50;;;;;;;5.43;4.28;;;1.50;99.90;;;;;;5011631;28;20037;-76
2023/10/18 02:06:16;;;;;;;6.35;3.55;;;1.50;99.90;;;;;;5011853;28;20022;-75
2023/10/18 02:08:42;;;;;;;8.20;3.85;;;1.50;99.90;;;;;;5010788;28;20030;-77
2023/10/18 02:11:11;;;;;;;5.97;3.42;;;1.60;99.90;;;;;;5010678;28;20397;-75
2023/10/18 02:13:37;;;;;;;5.70;3.13;;;1.60;99.90;;;;;;5011394;28;20030;-75
2023/10/18 02:16:06;;;;;;;5.65;3.50;;;1.50;99.90;;;;;;5011884;28;20117;-76
2023/10/18 02:18:35;;;;;;;6.18;3.60;;;1.50;99.90;;;;;;5011954;28;20504;-76
2023/10/18 02:21:02;;;;;;;6.40;3.80;;;1.50;99.90;;;;;;5013652;28;20061;-76
2023/10/18 02:23:37;;;;;;;8.60;3.97;;;1.60;99.90;;;;;;5014830;28;20038;-75
2023/10/18 02:26:22;;;;;;;7.68;4.22;;;1.70;99.90;;;;;;5015407;28;20030;-76
2023/10/18 02:28:48;;;;;;;8.27;3.67;;;1.60;99.90;;;;;;5015462;28;20478;-76
2023/10/18 02:31:15;;;;;;;4.93;4.00;;;1.60;99.90;;;;;;5015709;28;20022;-77
2023/10/18 02:33:43;;;;;;;5.00;4.00;;;1.60;99.90;;;;;;5014671;28;20076;-76
2023/10/18 02:36:11;;;;;;;5.60;3.65;;;1.70;99.90;;;;;;5015197;28;20054;-77
2023/10/18 02:38:38;;;;;;;5.68;3.55;;;1.60;99.90;;;;;;5014654;28;20022;-77
2023/10/18 02:41:15;;;;;;;9.05;3.55;;;1.50;99.90;;;;;;5030259;28;20057;-76
2023/10/18 02:43:49;;;;;;;4.00;3.35;;;1.50;99.90;;;;;;5014469;28;20056;-76
2023/10/18 02:46:23;;;;;;;4.78;3.25;;;1.50;99.90;;;;;;5013692;28;20026;-75
2023/10/18 02:48:51;;;;;;;5.28;3.50;;;1.50;99.90;;;;;;5014847;28;20049;-76
2023/10/18 02:51:22;;;;;;;8.88;4.80;;;1.50;99.90;;;;;;5014819;28;20113;-76
2023/10/18 02:53:48;;;;;;;6.15;3.53;;;1.50;99.90;;;;;;5014720;28;20022;-76
2023/10/18 02:56:17;;;;;;;5.05;3.15;;;1.40;99.90;;;;;;5013365;28;20378;-76
2023/10/18 02:58:43;;;;;;;6.90;4.32;;;1.30;99.90;;;;;;5014714;28;20018;-76
2023/10/18 03:01:09;;;;;;;5.03;3.63;;;1.30;99.90;;;;;;5014713;28;20528;-76
2023/10/18 03:03:35;;;;;;;7.20;4.30;;;1.30;99.90;;;;;;5014726;28;20022;-77
2023/10/18 03:06:13;;;;;;;4.60;3.75;;;1.30;99.90;;;;;;5013486;28;20030;-77
2023/10/18 03:08:49;;;;;;;5.80;3.90;;;1.30;99.90;;;;;;5030092;28;20032;-76
2023/10/18 03:11:15;;;;;;;7.40;3.92;;;1.30;99.90;;;;;;5014487;28;20025;-76
2023/10/18 03:13:42;;;;;;;7.05;4.03;;;1.20;99.90;;;;;;5029328;28;20036;-77
2023/10/18 03:16:27;;;;;;;7.55;4.05;;;1.20;99.90;;;;;;5013406;28;20022;-77
2023/10/18 03:18:53;;;;;;;5.40;3.70;;;1.20;99.90;;;;;;5014600;28;20032;-76
2023/10/18 03:21:22;;;;;;;5.63;3.85;;;1.20;99.90;;;;;;5030059;28;20025;-76
2023/10/18 03:23:51;;;;;;;5.38;4.10;;;1.20;99.90;;;;;;5029684;28;20448;-77
2023/10/18 03:26:33;;;;;;;5.57;3.90;;;1.10;99.90;;;;;;5013485;28;20025;-77
2023/10/18 03:29:05;;;;;;;5.85;4.43;;;1.10;99.90;;;;;;5029724;28;20030;-76
2023/10/18 03:31:35;;;;;;;6.93;3.92;;;1.10;99.90;;;;;;5029458;28;20026;-76
2023/10/18 03:34:02;;;;;;;5.05;3.22;;;1.10;99.90;;;;;;5013967;28;20407;-76
2023/10/18 03:36:48;;;;;;;3.83;2.90;;;1.00;99.90;;;;;;5029612;28;20022;-77
2023/10/18 03:39:21;;;;;;;;;;;1.00;99.90;;;;;;5013604;28;20030;-76
2023/10/18 03:41:50;;;;;;;4.20;2.83;;;0.90;99.90;;;;;;5014849;28;19916;-76
2023/10/18 03:44:26;;;;;;;5.78;3.92;;;1.00;99.90;;;;;;5014963;28;20033;-76
2023/10/18 03:47:03;;;;;;;6.00;3.78;;;1.00;99.90;;;;;;5030808;28;20022;-76
2023/10/18 03:51:57;;;;;;;4.28;3.40;;;0.90;99.90;;;;;;5034420;28;20409;-76
2023/10/18 03:54:26;;;;;;;4.72;3.85;;;0.90;99.90;;;;;;5050597;28;20033;-76
2023/10/18 03:56:52;;;;;;;6.72;4.28;;;1.00;99.90;;;;;;5035998;28;20021;-76
2023/10/18 03:59:21;;;;;;;5.88;4.30;;;1.00;99.90;;;;;;5052531;28;20112;-78
2023/10/18 04:04:36;;;;;;;10.88;5.03;;;1.00;99.90;;;;;;5029577;28;20026;-75
2023/10/18 04:07:12;;;;;;;7.85;5.13;;;1.00;99.90;;;;;;5031566;28;20036;-76
2023/10/18 04:12:29;;;;;;;6.57;4.57;;;2.40;99.90;;;;;;5030705;28;20045;-76
2023/10/18 04:15:01;;;;;;;7.53;5.53;;;1.80;99.90;;;;;;5030809;28;20022;-76
2023/10/18 04:17:37;;;;;;;9.18;4.88;;;1.50;99.90;;;;;;5031887;28;20026;-76
2023/10/18 04:20:09;;;;;;;10.05;4.28;;;1.30;99.90;;;;;;5034429;28;20021;-76
2023/10/18 04:22:38;;;;;;;7.00;4.82;;;1.20;99.90;;;;;;5048874;28;20049;-76
2023/10/18 04:25:16;;;;;;;7.43;4.85;;;1.00;99.90;;;;;;5033330;28;20017;-75
2023/10/18 04:27:44;;;;;;;7.60;5.18;;;0.90;99.90;;;;;;5029465;28;20021;-75
2023/10/18 04:30:15;;;;;;;6.18;4.20;;;0.90;99.90;;;;;;5046893;28;20046;-76
2023/10/18 04:32:42;;;;;;;9.45;4.55;;;0.90;99.90;;;;;;5025839;28;20084;-76
2023/10/18 04:35:17;;;;;;;6.68;4.43;;;0.90;99.90;;;;;;5014021;28;20018;-77
2023/10/18 04:37:43;;;;;;;9.90;4.43;;;0.90;99.90;;;;;;5029412;28;20018;-77
2023/10/18 04:40:22;;;;;;;8.07;5.30;;;0.90;99.90;;;;;;5013275;28;20076;-78
2023/10/18 04:42:48;;;;;;;6.22;4.20;;;0.80;99.90;;;;;;5013239;28;20030;-76
2023/10/18 04:45:17;;;;;;;7.35;4.30;;;0.80;99.90;;;;;;5013074;28;20021;-76
2023/10/18 04:47:42;;;;;;;8.95;5.00;;;0.70;99.90;;;;;;5012808;28;20034;-77
2023/10/18 04:50:11;;;;;;;8.60;4.57;;;0.60;99.90;;;;;;5012937;28;20465;-76
2023/10/18 04:52:43;;;;;;;8.40;4.80;;;0.70;99.90;;;;;;5012343;28;20116;-77
2023/10/18 04:55:12;;;;;;;9.93;4.80;;;0.70;99.90;;;;;;5011393;28;20026;-76
2023/10/18 04:57:38;;;;;;;9.20;5.40;;;0.60;99.90;;;;;;5012901;28;20021;-76
2023/10/18 05:00:25;;;;;;;5.82;4.10;;;0.60;99.90;;;;;;5014201;28;20124;-75
2023/10/18 05:02:58;;;;;;;9.18;5.57;;;0.60;99.90;;;;;;5012720;28;20508;-77
2023/10/18 05:05:26;;;;;;;8.52;5.70;;;0.60;99.90;;;;;;5012803;28;20087;-77
2023/10/18 05:07:53;;;;;;;9.15;5.53;;;0.60;99.90;;;;;;5012983;28;20542;-77
2023/10/18 05:10:20;;;;;;;11.05;5.72;;;0.60;99.90;;;;;;5012627;28;20056;-77
2023/10/18 05:12:53;;;;;;;9.32;4.70;;;0.60;99.90;;;;;;5012868;28;20056;-76
2023/10/18 05:15:28;;;;;;;7.18;5.00;;;0.60;99.90;;;;;;5011822;28;20115;-76
2023/10/18 05:18:04;;;;;;;10.25;6.43;;;0.70;99.90;;;;;;5013826;28;20021;-77
2023/10/18 05:21:20;;;;;;;21.73;11.13;;;0.70;99.90;;;;;;5030832;28;20029;-77
2023/10/18 05:23:32;;;;;;;11.43;5.72;;;0.80;99.90;;;;;;5024181;28;20402;-76
2023/10/18 05:26:32;;;;;;;11.80;7.82;;;4.70;99.90;;;;;;5030760;28;20485;-76
2023/10/18 05:28:52;;;;;;;12.07;7.00;;;7.50;99.90;;;;;;5030036;28;20033;-76
2023/10/18 05:34:06;;;;;;;16.65;6.45;;;4.50;99.90;;;;;;5032255;28;20026;-75
2023/10/18 05:36:35;;;;;;;7.55;5.68;;;3.40;99.90;;;;;;5031895;28;20072;-76
2023/10/18 05:41:46;;;;;;;7.07;5.18;;;2.20;99.90;;;;;;5032312;28;20092;-76
2023/10/18 05:44:12;;;;;;;6.57;4.15;;;1.80;99.90;;;;;;5031728;28;20485;-75
2023/10/18 05:46:39;;;;;;;8.57;4.60;;;1.60;99.90;;;;;;5031047;28;20033;-77
2023/10/18 05:49:15;;;;;;;8.52;5.35;;;5.10;99.90;;;;;;5031903;28;20147;-76
2023/10/18 05:51:51;;;;;;;8.85;5.20;;;4.30;99.90;;;;;;5032104;28;20647;-76
2023/10/18 05:54:28;;;;;;;14.50;5.90;;;3.50;99.90;;;;;;5022579;28;20065;-76
2023/10/18 05:56:54;;;;;;;9.57;6.50;;;2.90;99.90;;;;;;5015688;28;20018;-76
2023/10/18 06:01:47;;;;;;;9.50;5.07;;;2.00;99.90;;;;;;5015827;28;20029;-76
2023/10/18 06:04:14;;;;;;;11.23;5.13;;;1.80;99.90;;;;;;5015311;28;20385;-76
2023/10/18 06:06:40;;;;;;;7.95;5.32;;;1.60;99.90;;;;;;5015781;28;20033;-76
2023/10/18 06:09:25;;;;;;;9.77;7.07;;;1.60;99.90;;;;;;5016319;28;20022;-76
2023/10/18 06:11:51;;;;;;;7.45;5.28;;;1.50;99.90;;;;;;5016116;28;20080;-76
2023/10/18 06:14:17;;;;;;;8.88;5.40;;;1.50;99.90;;;;;;5015466;28;20492;-76
2023/10/18 06:16:42;;;;;;;10.02;4.75;;;1.40;99.90;;;;;;5015598;28;20096;-76
2023/10/18 06:19:13;;;;;;;7.32;4.25;;;1.40;99.90;;;;;;5015541;28;20389;-76
2023/10/18 06:21:49;;;;;;;7.28;4.45;;;1.40;99.90;;;;;;5030954;28;20497;-76
2023/10/18 06:24:16;;;;;;;6.18;4.72;;;1.40;99.90;;;;;;5015310;28;20687;-78
2023/10/18 06:26:44;;;;;;;7.78;4.65;;;1.40;99.90;;;;;;5015663;28;20024;-76
2023/10/18 06:29:11;;;;;;;11.13;4.80;;;1.40;99.90;;;;;;5015480;28;20056;-75
2023/10/18 06:31:42;;;;;;;9.90;4.60;;;1.40;99.90;;;;;;5015253;28;20030;-76
2023/10/18 06:34:15;;;;;;;12.77;4.65;;;1.50;99.90;;;;;;5030947;28;20022;-77
2023/10/18 06:36:41;;;;;;;6.30;4.82;;;1.40;99.90;;;;;;5014294;28;20071;-76
2023/10/18 06:39:07;;;;;;;11.88;4.47;;;1.40;99.90;;;;;;5015593;28;20117;-77
2023/10/18 06:41:33;;;;;;;7.15;5.25;;;1.40;99.90;;;;;;5015626;28;20474;-76
2023/10/18 06:43:58;;;;;;;11.38;4.72;;;1.40;99.90;;;;;;5015433;28;20018;-76
2023/10/18 06:46:28;;;;;;;6.90;4.35;;;1.60;99.90;;;;;;5015806;28;20030;-76
2023/10/18 06:48:55;;;;;;;17.48;5.45;;;1.60;99.90;;;;;;5015833;28;20109;-76
2023/10/18 06:51:30;;;;;;;9.15;5.85;;;1.80;99.90;;;;;;5028415;28;20049;-77
2023/10/18 06:54:05;;;;;;;;;;;1.90;99.90;;;;;;5045236;28;20083;-76
2023/10/18 06:56:39;;;;;;;10.18;5.30;;;2.00;99.90;;;;;;5028792;28;19964;-76
2023/10/18 06:59:08;;;;;;;10.18;6.40;;;2.20;99.90;;;;;;5030194;28;20021;-76
2023/10/18 07:01:41;;;;;;;8.55;5.07;;;2.40;99.90;;;;;;5046627;28;20026;-79
2023/10/18 07:04:24;;;;;;;11.27;5.55;;;2.50;99.90;;;;;;5030760;28;20112;-75
2023/10/18 07:06:52;;;;;;;8.57;6.20;;;2.40;99.90;;;;;;5046195;28;20030;-76
2023/10/18 07:09:26;;;;;;;11.85;6.10;;;2.60;99.90;;;;;;5031508;28;20428;-79
2023/10/18 07:11:57;;;;;;;10.07;6.32;;;2.70;99.90;;;;;;5030449;28;20018;-77
2023/10/18 07:14:25;;;;;;;11.57;6.78;;;2.90;99.90;;;;;;5045314;28;20037;-76
2023/10/18 07:17:04;;;;;;;9.35;6.10;;;3.00;99.90;;;;;;5046050;28;20018;-78
2023/10/18 07:19:33;;;;;;;13.15;7.28;;;3.20;99.90;;;;;;5046516;28;20069;-77
2023/10/18 07:22:05;;;;;;;10.95;6.80;;;3.40;99.90;;;;;;5029476;28;20026;-76
2023/10/18 07:24:36;;;;;;;11.00;6.93;;;3.40;99.90;;;;;;5044517;28;20037;-76
2023/10/18 07:27:09;;;;;;;13.55;6.60;;;3.50;99.90;;;;;;5029505;28;20054;-76
2023/10/18 07:29:36;;;;;;;15.35;7.35;;;3.60;99.90;;;;;;5044709;28;20032;-76
2023/10/18 07:32:06;;;;;;;10.00;6.38;;;3.70;99.90;;;;;;5035284;28;20489;-85
2023/10/18 07:34:33;;;;;;;9.88;6.85;;;3.90;99.90;;;;;;5052871;28;20044;-81
2023/10/18 07:36:58;;;;;;;11.57;6.85;;;4.10;99.90;;;;;;5037723;28;20108;-80
2023/10/18 07:39:24;;;;;;;13.38;6.63;;;4.20;99.90;;;;;;5038769;28;20275;-83
2023/10/18 07:41:55;;;;;;;10.82;6.90;;;4.40;99.90;;;;;;5038949;28;20022;-81
2023/10/18 07:44:20;;;;;;;13.45;6.30;;;4.60;99.90;;;;;;5037925;28;20014;-83
2023/10/18 07:46:46;;;;;;;15.00;6.93;;;4.60;99.90;;;;;;5054156;28;20156;-80
2023/10/18 07:49:14;;;;;;;12.98;7.45;;;4.80;99.90;;;;;;5055245;28;20014;-80
2023/10/18 07:51:48;;;;;;;10.55;7.38;;;4.90;99.90;;;;;;5038475;28;20041;-82
2023/10/18 07:54:15;;;;;;;10.68;7.03;;;5.00;99.90;;;;;;5053798;28;20029;-82
2023/10/18 07:56:53;;;;;;;10.80;7.13;;;5.10;99.90;;;;;;5037186;28;20060;-80
2023/10/18 07:59:28;;;;;;;10.48;7.13;;;5.30;99.90;;;;;;5050219;28;20089;-82
2023/10/18 08:02:13;;;;;;;;;;;5.50;99.90;;;;;;5048085;28;20034;-83
2023/10/18 08:04:40;;;;;;;14.27;6.68;;;5.60;99.90;;;;;;5032375;28;19944;-82
2023/10/18 08:07:10;;;;;;;9.88;6.32;;;5.80;99.90;;;;;;5048163;28;20029;-83
2023/10/18 08:09:39;;;;;;;11.32;7.00;;;5.90;99.90;;;;;;5033008;28;20025;-81
2023/10/18 08:12:06;;;;;;;9.68;6.80;;;6.10;99.90;;;;;;5032212;28;20033;-81
2023/10/18 08:14:35;;;;;;;11.15;7.05;;;6.20;99.90;;;;;;5031044;28;20030;-82
2023/10/18 08:17:29;;;;;;;10.50;7.20;;;6.30;99.90;;;;;;5030789;28;20032;-82
2023/10/18 08:20:17;;;;;;;15.00;7.72;;;6.30;99.90;;;;;;5041096;28;20545;-82
2023/10/18 08:22:43;;;;;;;9.85;7.60;;;6.50;99.90;;;;;;5047343;28;20075;-83
2023/10/18 08:25:21;;;;;;;12.25;7.97;;;6.80;99.90;;;;;;5037568;28;20014;-81
2023/10/18 08:27:51;;;;;;;11.48;7.88;;;6.80;99.90;;;;;;5050696;28;20053;-85
2023/10/18 08:33:03;;;;;;;11.80;7.75;;;7.10;99.90;;;;;;5030835;28;20393;-83
2023/10/18 08:35:29;;;;;;;13.15;7.15;;;7.20;99.90;;;;;;5021812;28;20025;-84
2023/10/18 08:37:55;;;;;;;15.50;7.60;;;7.40;99.90;;;;;;5040382;28;20029;-84
2023/10/18 08:43:18;;;;;;;12.88;7.22;;;7.70;99.90;;;;;;5020811;28;20030;-84
2023/10/18 08:45:48;;;;;;;15.70;7.85;;;7.80;99.90;;;;;;5020658;28;20185;-80
2023/10/18 08:48:17;;;;;;;13.40;8.02;;;8.00;99.90;;;;;;5020811;28;20053;-82
2023/10/18 08:50:45;;;;;;;12.30;8.23;;;8.10;99.90;;;;;;5030322;28;20022;-82
2023/10/18 08:53:15;;;;;;;9.38;6.78;;;8.30;99.90;;;;;;5043515;28;20026;-79
2023/10/18 08:55:51;;;;;;;12.27;7.85;;;8.50;99.90;;;;;;5026409;28;20029;-79
2023/10/18 08:58:19;;;;;;;10.70;6.80;;;8.70;99.90;;;;;;5025073;28;20033;-80
2023/10/18 09:03:23;;;;;;;10.82;7.95;;;9.20;99.90;;;;;;5024563;28;20030;-82
2023/10/18 09:05:52;;;;;;;10.20;6.68;;;9.40;99.90;;;;;;5024286;28;20029;-80
2023/10/18 09:08:23;;;;;;;11.50;7.80;;;9.60;99.90;;;;;;5040028;28;20079;-81
2023/10/18 09:10:55;;;;;;;11.68;6.82;;;9.70;99.90;;;;;;5024862;28;20022;-81
2023/10/18 09:18:20;;;;;;;7.55;5.53;;;10.00;98.40;;;;;;5023457;28;20022;-83
2023/10/18 09:20:46;;;;;;;9.27;5.32;;;10.00;97.90;;;;;;5024885;28;20029;-80
2023/10/18 09:23:21;;;;;;;7.38;5.70;;;10.10;97.70;;;;;;5023317;28;20068;-81
2023/10/18 09:25:50;;;;;;;8.73;6.30;;;10.20;97.90;;;;;;5041087;28;20026;-81
2023/10/18 09:28:25;;;;;;;7.68;5.50;;;10.20;97.70;;;;;;5022684;28;20026;-80
2023/10/18 09:31:00;;;;;;;8.18;5.88;;;10.20;97.20;;;;;;5025382;28;20025;-80
2023/10/18 09:33:27;;;;;;;12.40;6.15;;;10.20;97.60;;;;;;5027665;28;20120;-80
2023/10/18 09:36:01;;;;;;;8.35;6.65;;;10.20;97.60;;;;;;5028054;28;20029;-80
2023/10/18 09:38:41;;;;;;;7.93;6.10;;;10.30;97.40;;;;;;5027633;28;20387;-81
2023/10/18 09:41:07;;;;;;;8.93;5.80;;;10.10;97.50;;;;;;5027264;28;20026;-79
2023/10/18 09:43:36;;;;;;;8.40;6.30;;;10.20;97.20;;;;;;5025668;28;20025;-81
2023/10/18 09:46:03;;;;;;;9.07;6.88;;;10.20;97.40;;;;;;5039167;28;20033;-79
2023/10/18 09:48:37;;;;;;;8.93;6.88;;;10.30;96.90;;;;;;5023050;28;20032;-80
2023/10/18 09:51:15;;;;;;;9.27;6.43;;;10.40;96.90;;;;;;5042852;28;20025;-80
2023/10/18 09:53:45;;;;;;;8.98;6.57;;;10.50;97.00;;;;;;5022823;28;20121;-79
2023/10/18 09:56:12;;;;;;;9.82;7.43;;;10.70;96.50;;;;;;5032483;28;20032;-82
2023/10/18 09:58:43;;;;;;;11.23;6.88;;;10.70;95.20;;;;;;5044927;28;20225;-81
2023/10/18 10:01:14;;;;;;;8.55;6.28;;;10.60;96.20;;;;;;5043993;28;20055;-80
2023/10/18 10:03:51;;;;;;;8.45;6.07;;;10.70;96.20;;;;;;5045077;28;20109;-79
2023/10/18 10:06:23;;;;;;;10.90;6.65;;;10.60;96.20;;;;;;5047275;28;20052;-81
2023/10/18 10:08:54;;;;;;;8.63;6.50;;;10.60;96.40;;;;;;5041547;28;20104;-80
2023/10/18 10:11:29;;;;;;;9.90;6.50;;;10.50;97.10;;;;;;5039079;28;20037;-83
2023/10/18 10:13:58;;;;;;;10.40;7.25;;;10.50;97.30;;;;;;5044267;28;20048;-83
2023/10/18 10:16:25;;;;;;;11.68;6.45;;;10.60;96.90;;;;;;5043842;28;20060;-81
2023/10/18 10:18:53;;;;;;;9.23;6.30;;;10.50;97.50;;;;;;5044057;28;20013;-80
2023/10/18 10:21:21;;;;;;;8.23;6.13;;;10.40;96.60;;;;;;5043322;28;20500;-80
2023/10/18 10:23:55;;;;;;;16.48;6.50;;;10.50;96.40;;;;;;5039730;28;20222;-80
2023/10/18 10:26:27;;;;;;;10.77;6.82;;;10.70;96.30;;;;;;5043805;28;20081;-79
2023/10/18 10:31:54;;;;;;;;;;;10.70;96.00;;;;;;5043145;28;20029;-82
2023/10/18 10:34:26;;;;;;;8.35;6.32;;;10.80;95.90;;;;;;5040901;28;19916;-80
2023/10/18 10:37:15;;;;;;;9.93;6.05;;;10.90;96.00;;;;;;5041937;28;20093;-80
2023/10/18 10:39:45;;;;;;;12.60;6.43;;;11.00;95.70;;;;;;5040520;28;20025;-80
2023/10/18 10:42:44;;;;;;;8.60;6.38;;;11.00;95.30;;;;;;5038230;28;20030;-82
2023/10/18 10:45:41;;;;;;;6.55;5.28;;;11.20;95.80;;;;;;5037582;28;20055;-79
2023/10/18 10:48:16;;;;;;;8.23;6.25;;;11.40;94.80;;;;;;5038578;28;20032;-79
2023/10/18 10:50:50;;;;;;;10.18;6.68;;;11.50;94.50;;;;;;5040697;28;20092;-80
2023/10/18 10:53:44;;;;;;;8.43;6.35;;;11.60;94.60;;;;;;5040562;28;20029;-80
2023/10/18 10:56:39;;;;;;;10.02;6.65;;;11.50;93.60;;;;;;5043439;28;20083;-80
2023/10/18 11:01:57;;;;;;;7.78;6.25;;;11.60;94.30;;;;;;5041150;28;20471;-81
2023/10/18 11:04:28;;;;;;;9.73;6.43;;;11.80;94.30;;;;;;5039601;28;20167;-80
2023/10/18 11:07:04;;;;;;;11.20;6.85;;;11.90;93.20;;;;;;5039635;28;20032;-79
2023/10/18 11:09:33;;;;;;;;;;;11.90;93.30;;;;;;5040337;28;20017;-83
2023/10/18 11:12:11;;;;;;;6.55;5.60;;;11.90;92.80;;;;;;5040922;28;19905;-83
2023/10/18 11:14:37;;;;;;;10.43;6.85;;;12.00;92.70;;;;;;5041217;28;20017;-82
2023/10/18 11:19:53;;;;;;;10.20;6.97;;;12.20;91.90;;;;;;5040253;28;20036;-80
2023/10/18 11:22:20;;;;;;;7.93;5.65;;;12.20;91.60;;;;;;5040295;28;20013;-82
2023/10/18 11:24:50;;;;;;;11.98;7.38;;;12.10;91.80;;;;;;5039031;28;20040;-78
2023/10/18 11:27:25;;;;;;;9.55;6.07;;;12.20;91.30;;;;;;5036758;28;20030;-80
2023/10/18 11:29:56;;;;;;;12.65;6.60;;;12.10;91.40;;;;;;5038983;28;20068;-79
2023/10/18 11:32:28;;;;;;;8.52;6.47;;;12.00;91.40;;;;;;5038317;28;20041;-80
2023/10/18 11:35:09;;;;;;;9.30;6.40;;;11.80;92.20;;;;;;5039607;28;20029;-80
2023/10/18 11:37:38;;;;;;;11.45;6.63;;;11.70;92.30;;;;;;5038913;28;20021;-76
2023/10/18 11:40:29;;;;;;;9.40;6.57;;;11.80;91.90;;;;;;5038028;28;20020;-76
2023/10/18 11:43:05;;;;;;;9.40;6.82;;;11.80;91.70;;;;;;5037891;28;20021;-80
2023/10/18 11:45:31;;;;;;;9.98;7.18;;;11.70;91.90;;;;;;5035794;28;20094;-77
2023/10/18 11:47:59;;;;;;;8.57;6.50;;;11.80;92.00;;;;;;5036310;28;20018;-79
2023/10/18 11:50:47;;;;;;;13.00;5.20;;;11.80;92.30;;;;;;5037271;28;20489;-78
2023/10/18 11:53:17;;;;;;;11.85;7.80;;;12.50;99.90;;;;;;5036733;28;20021;-78
2023/10/18 11:55:58;;;;;;;10.65;7.20;;;12.50;92.30;;;;;;5037444;28;20022;-77
2023/10/18 11:58:28;;;;;;;9.75;6.78;;;12.30;91.10;;;;;;5036038;28;20537;-77
2023/10/18 12:01:13;;;;;;;8.80;7.13;;;12.10;91.80;;;;;;5036651;28;20026;-79
2023/10/18 12:03:38;;;;;;;10.85;7.68;;;12.00;92.00;;;;;;5038101;28;20682;-78
2023/10/18 12:06:04;;;;;;;8.48;6.47;;;12.10;92.20;;;;;;5038057;28;20117;-78
2023/10/18 12:08:47;;;;;;;9.70;7.55;;;12.00;91.70;;;;;;5037649;28;20032;-78
2023/10/18 12:11:14;;;;;;;13.05;7.25;;;12.00;92.10;;;;;;5037653;28;20095;-78
2023/10/18 12:13:40;;;;;;;10.70;7.97;;;11.90;91.90;;;;;;5035729;28;20025;-78
2023/10/18 12:16:08;;;;;;;11.85;7.00;;;11.90;92.00;;;;;;5036861;28;20026;-78
2023/10/18 12:18:35;;;;;;;11.30;7.05;;;11.80;92.10;;;;;;5053941;28;20025;-78
2023/10/18 12:21:01;;;;;;;13.02;7.63;;;11.60;92.60;;;;;;5038538;28;20018;-78
2023/10/18 12:23:26;;;;;;;12.25;7.60;;;11.70;92.50;;;;;;5038942;28;20615;-79
2023/10/18 12:25:52;;;;;;;11.27;7.30;;;11.40;92.70;;;;;;5038029;28;20056;-77
2023/10/18 12:28:19;;;;;;;11.23;8.45;;;11.50;93.00;;;;;;5038261;28;20052;-77
2023/10/18 12:30:52;;;;;;;13.20;8.20;;;11.40;92.90;;;;;;5038308;28;20555;-79
2023/10/18 12:33:27;;;;;;;11.52;7.53;;;11.40;93.00;;;;;;5036823;28;20026;-78
2023/10/18 12:35:59;;;;;;;18.27;11.37;;;11.40;92.90;;;;;;5037341;28;20021;-80
2023/10/18 12:38:32;;;;;;;12.25;8.48;;;11.20;94.10;;;;;;5038002;28;20255;-79
2023/10/18 12:41:02;;;;;;;12.05;9.88;;;11.20;94.00;;;;;;5038414;28;20049;-78
2023/10/18 12:43:32;;;;;;;15.25;9.32;;;11.20;94.30;;;;;;5037859;28;20446;-78
2023/10/18 12:46:00;;;;;;;11.85;8.38;;;11.30;94.40;;;;;;5055203;28;20039;-78
2023/10/18 12:48:27;;;;;;;13.80;7.82;;;11.30;94.50;;;;;;5037221;28;20034;-79
2023/10/18 12:50:54;;;;;;;12.88;8.88;;;11.40;94.10;;;;;;5038990;28;20051;-78
2023/10/18 12:53:37;;;;;;;14.82;9.60;;;11.40;94.70;;;;;;5037685;28;20036;-79
2023/10/18 13:01:32;;;;;;;12.98;8.95;;;11.20;94.90;;;;;;5038907;28;20064;-78
2023/10/18 13:03:59;;;;;;;14.80;10.30;;;11.20;94.60;;;;;;5038090;28;20028;-79
2023/10/18 13:06:35;;;;;;;17.30;10.02;;;11.20;94.70;;;;;;5039403;28;20045;-78
2023/10/18 13:09:15;;;;;;;12.77;7.95;;;11.30;95.00;;;;;;5038336;28;20044;-79
2023/10/18 13:14:24;;;;;;;16.75;8.98;;;11.40;94.30;;;;;;5038069;28;20475;-78
2023/10/18 13:16:54;;;;;;;25.38;13.43;;;11.40;94.90;;;;;;5037684;28;20026;-80
2023/10/18 13:19:19;;;;;;;14.95;9.55;;;11.30;95.10;;;;;;5038245;28;20516;-79
2023/10/18 13:21:47;;;;;;;13.10;8.65;;;11.20;94.90;;;;;;5053944;28;20026;-79
2023/10/18 13:24:17;;;;;;;11.30;8.38;;;11.30;94.80;;;;;;5037977;28;20029;-78
2023/10/18 13:26:44;;;;;;;10.77;8.00;;;11.10;95.00;;;;;;5038034;28;20045;-79
2023/10/18 13:29:29;;;;;;;10.68;7.82;;;11.20;95.40;;;;;;5038996;28;20040;-78
2023/10/18 13:31:59;;;;;;;14.93;7.97;;;11.10;95.00;;;;;;5039113;28;20021;-80
2023/10/18 13:34:39;;;;;;;11.32;8.50;;;10.90;95.90;;;;;;5038535;28;20041;-80
2023/10/18 13:37:10;;;;;;;25.50;12.63;;;11.00;96.50;;;;;;5039613;28;20033;-79
2023/10/18 13:39:39;;;;;;;19.25;10.65;;;10.90;96.50;;;;;;5038483;28;20021;-79
2023/10/18 13:42:05;;;;;;;12.80;8.63;;;11.10;97.00;;;;;;5041006;28;20017;-80
2023/10/18 13:44:31;;;;;;;16.33;9.32;;;11.10;96.60;;;;;;5041356;28;20080;-79
2023/10/18 13:46:58;;;;;;;16.85;9.93;;;11.10;95.90;;;;;;5054759;28;20025;-80
2023/10/18 13:49:23;;;;;;;12.55;8.20;;;11.00;96.00;;;;;;5054892;28;20052;-81
2023/10/18 13:51:50;;;;;;;12.88;8.82;;;11.30;98.80;;;;;;5069202;28;20116;-80
2023/10/18 13:54:16;;;;;;;11.15;8.52;;;11.20;96.70;;;;;;5047322;28;20026;-79
2023/10/18 13:56:43;;;;;;;12.68;7.88;;;11.10;96.40;;;;;;5045687;28;20026;-80